sensor_id;sensor_type;location;lat;lon;timestamp;temperature;humidity
23291;DHT22;11814;44.686;10.842;2023-03-01T00:02:20;6.30;99.90
23291;DHT22;11814;44.686;10.842;2023-03-01T00:04:47;6.30;99.90
23291;DHT22;11814;44.686;10.842;2023-03-01T00:07:12;6.30;99.90
23291;DHT22;11814;44.686;10.842;2023-03-01T00:09:38;6.30;99.90
23291;DHT22;11814;44.686;10.842;2023-03-01T00:12:06;6.30;99.90
23291;DHT22;11814;44.686;10.842;2023-03-01T00:14:32;6.30;99.90
23291;DHT22;11814;44.686;10.842;2023-03-01T00:16:57;6.30;99.90
23291;DHT22;11814;44.686;10.842;2023-03-01T00:19:23;6.30;99.90
23291;DHT22;11814;44.686;10.842;2023-03-01T00:21:49;6.30;99.90
23291;DHT22;11814;44.686;10.842;2023-03-01T00:24:15;6.30;99.90
23291;DHT22;11814;44.686;10.842;2023-03-01T00:26:41;6.30;99.90
23291;DHT22;11814;44.686;10.842;2023-03-01T00:29:07;6.30;99.90
23291;DHT22;11814;44.686;10.842;2023-03-01T00:31:33;6.30;99.90
23291;DHT22;11814;44.686;10.842;2023-03-01T00:34:01;6.30;99.90
23291;DHT22;11814;44.686;10.842;2023-03-01T00:36:33;6.30;99.90
23291;DHT22;11814;44.686;10.842;2023-03-01T00:38:59;6.30;99.90
23291;DHT22;11814;44.686;10.842;2023-03-01T00:41:25;6.30;99.90
23291;DHT22;11814;44.686;10.842;2023-03-01T00:43:54;6.40;99.90
23291;DHT22;11814;44.686;10.842;2023-03-01T00:46:22;6.40;99.90
23291;DHT22;11814;44.686;10.842;2023-03-01T00:48:49;6.40;99.90
23291;DHT22;11814;44.686;10.842;2023-03-01T00:51:18;6.40;99.90
23291;DHT22;11814;44.686;10.842;2023-03-01T00:53:46;6.40;99.90
23291;DHT22;11814;44.686;10.842;2023-03-01T00:56:13;6.40;99.90
23291;DHT22;11814;44.686;10.842;2023-03-01T00:58:39;6.30;99.90
23291;DHT22;11814;44.686;10.842;2023-03-01T01:01:14;6.30;99.90
23291;DHT22;11814;44.686;10.842;2023-03-01T01:03:54;6.30;99.90
23291;DHT22;11814;44.686;10.842;2023-03-01T01:06:24;6.30;99.90
23291;DHT22;11814;44.686;10.842;2023-03-01T01:08:51;6.30;99.90
23291;DHT22;11814;44.686;10.842;2023-03-01T01:11:17;6.30;99.90
23291;DHT22;11814;44.686;10.842;2023-03-01T01:13:45;6.30;99.90
23291;DHT22;11814;44.686;10.842;2023-03-01T01:16:11;6.30;99.90
23291;DHT22;11814;44.686;10.842;2023-03-01T01:18:37;6.20;99.90
23291;DHT22;11814;44.686;10.842;2023-03-01T01:21:15;6.20;99.90
23291;DHT22;11814;44.686;10.842;2023-03-01T01:23:43;6.20;99.90
23291;DHT22;11814;44.686;10.842;2023-03-01T01:26:21;6.20;99.90
23291;DHT22;11814;44.686;10.842;2023-03-01T01:28:47;6.20;99.90
23291;DHT22;11814;44.686;10.842;2023-03-01T01:31:14;6.20;99.90
23291;DHT22;11814;44.686;10.842;2023-03-01T01:33:40;6.20;99.90
23291;DHT22;11814;44.686;10.842;2023-03-01T01:36:07;6.20;99.90
23291;DHT22;11814;44.686;10.842;2023-03-01T01:38:34;6.20;99.90
23291;DHT22;11814;44.686;10.842;2023-03-01T01:41:00;6.20;99.90
23291;DHT22;11814;44.686;10.842;2023-03-01T01:43:32;6.20;99.90
23291;DHT22;11814;44.686;10.842;2023-03-01T01:46:04;6.20;99.90
23291;DHT22;11814;44.686;10.842;2023-03-01T01:48:46;6.10;99.90
23291;DHT22;11814;44.686;10.842;2023-03-01T01:51:18;6.20;99.90
23291;DHT22;11814;44.686;10.842;2023-03-01T01:53:48;6.20;99.90
23291;DHT22;11814;44.686;10.842;2023-03-01T01:56:16;6.10;99.90
23291;DHT22;11814;44.686;10.842;2023-03-01T01:58:43;6.10;99.90
23291;DHT22;11814;44.686;10.842;2023-03-01T02:01:10;6.00;99.90
23291;DHT22;11814;44.686;10.842;2023-03-01T02:03:39;6.10;99.90
23291;DHT22;11814;44.686;10.842;2023-03-01T02:06:37;6.00;99.90
23291;DHT22;11814;44.686;10.842;2023-03-01T02:09:13;6.00;99.90
23291;DHT22;11814;44.686;10.842;2023-03-01T02:11:39;6.10;99.90
23291;DHT22;11814;44.686;10.842;2023-03-01T02:14:05;6.00;99.90
23291;DHT22;11814;44.686;10.842;2023-03-01T02:16:31;6.00;99.90
23291;DHT22;11814;44.686;10.842;2023-03-01T02:18:58;6.00;99.90
23291;DHT22;11814;44.686;10.842;2023-03-01T02:23:54;6.00;99.90
23291;DHT22;11814;44.686;10.842;2023-03-01T02:26:34;6.00;99.90
23291;DHT22;11814;44.686;10.842;2023-03-01T02:29:02;6.00;99.90
23291;DHT22;11814;44.686;10.842;2023-03-01T02:31:28;6.00;99.90
23291;DHT22;11814;44.686;10.842;2023-03-01T02:34:16;6.00;99.90
23291;DHT22;11814;44.686;10.842;2023-03-01T02:36:56;6.00;99.90
23291;DHT22;11814;44.686;10.842;2023-03-01T02:39:28;6.00;99.90
23291;DHT22;11814;44.686;10.842;2023-03-01T02:41:56;5.90;99.90
23291;DHT22;11814;44.686;10.842;2023-03-01T02:44:24;6.00;99.90
23291;DHT22;11814;44.686;10.842;2023-03-01T02:46:52;6.00;99.90
23291;DHT22;11814;44.686;10.842;2023-03-01T02:49:23;5.90;99.90
23291;DHT22;11814;44.686;10.842;2023-03-01T02:54:44;5.90;99.90
23291;DHT22;11814;44.686;10.842;2023-03-01T02:57:13;5.90;99.90
23291;DHT22;11814;44.686;10.842;2023-03-01T02:59:40;5.90;99.90
23291;DHT22;11814;44.686;10.842;2023-03-01T03:02:26;5.80;99.90
23291;DHT22;11814;44.686;10.842;2023-03-01T03:05:12;5.80;99.90
23291;DHT22;11814;44.686;10.842;2023-03-01T03:07:40;5.90;99.90
23291;DHT22;11814;44.686;10.842;2023-03-01T03:10:13;5.80;99.90
23291;DHT22;11814;44.686;10.842;2023-03-01T03:12:40;5.80;99.90
23291;DHT22;11814;44.686;10.842;2023-03-01T03:15:07;5.90;99.90
23291;DHT22;11814;44.686;10.842;2023-03-01T03:17:37;5.80;99.90
23291;DHT22;11814;44.686;10.842;2023-03-01T03:20:05;5.80;99.90
23291;DHT22;11814;44.686;10.842;2023-03-01T03:22:32;5.80;99.90
23291;DHT22;11814;44.686;10.842;2023-03-01T03:24:59;5.80;99.90
23291;DHT22;11814;44.686;10.842;2023-03-01T03:27:25;5.70;99.90
23291;DHT22;11814;44.686;10.842;2023-03-01T03:29:51;5.70;99.90
23291;DHT22;11814;44.686;10.842;2023-03-01T03:32:16;5.70;99.90
23291;DHT22;11814;44.686;10.842;2023-03-01T03:34:42;5.70;99.90
23291;DHT22;11814;44.686;10.842;2023-03-01T03:37:08;5.60;99.90
23291;DHT22;11814;44.686;10.842;2023-03-01T03:39:53;5.70;99.90
23291;DHT22;11814;44.686;10.842;2023-03-01T03:42:21;5.70;99.90
23291;DHT22;11814;44.686;10.842;2023-03-01T03:44:48;5.70;99.90
23291;DHT22;11814;44.686;10.842;2023-03-01T03:47:14;5.70;99.90
23291;DHT22;11814;44.686;10.842;2023-03-01T03:49:40;5.60;99.90
23291;DHT22;11814;44.686;10.842;2023-03-01T03:52:05;5.70;99.90
23291;DHT22;11814;44.686;10.842;2023-03-01T03:54:40;5.70;99.90
23291;DHT22;11814;44.686;10.842;2023-03-01T03:57:06;5.70;99.90
23291;DHT22;11814;44.686;10.842;2023-03-01T03:59:31;5.70;99.90
23291;DHT22;11814;44.686;10.842;2023-03-01T04:01:57;5.70;99.90
23291;DHT22;11814;44.686;10.842;2023-03-01T04:04:23;5.70;99.90
23291;DHT22;11814;44.686;10.842;2023-03-01T04:06:49;5.70;99.90
23291;DHT22;11814;44.686;10.842;2023-03-01T04:09:14;5.70;99.90
23291;DHT22;11814;44.686;10.842;2023-03-01T04:11:40;5.70;99.90
23291;DHT22;11814;44.686;10.842;2023-03-01T04:14:06;5.70;99.90
23291;DHT22;11814;44.686;10.842;2023-03-01T04:16:32;5.70;99.90
23291;DHT22;11814;44.686;10.842;2023-03-01T04:18:58;5.70;99.90
23291;DHT22;11814;44.686;10.842;2023-03-01T04:21:25;5.70;99.90
23291;DHT22;11814;44.686;10.842;2023-03-01T04:23:51;5.70;99.90
23291;DHT22;11814;44.686;10.842;2023-03-01T04:26:18;5.70;99.90
23291;DHT22;11814;44.686;10.842;2023-03-01T04:28:45;5.80;99.90
23291;DHT22;11814;44.686;10.842;2023-03-01T04:31:13;5.80;99.90
23291;DHT22;11814;44.686;10.842;2023-03-01T04:33:52;5.80;99.90
23291;DHT22;11814;44.686;10.842;2023-03-01T04:36:20;5.80;99.90
23291;DHT22;11814;44.686;10.842;2023-03-01T04:38:47;5.80;99.90
23291;DHT22;11814;44.686;10.842;2023-03-01T04:41:14;5.80;99.90
23291;DHT22;11814;44.686;10.842;2023-03-01T04:43:40;5.80;99.90
23291;DHT22;11814;44.686;10.842;2023-03-01T04:46:08;5.80;99.90
23291;DHT22;11814;44.686;10.842;2023-03-01T04:48:38;5.80;99.90
23291;DHT22;11814;44.686;10.842;2023-03-01T04:51:04;5.80;99.90
23291;DHT22;11814;44.686;10.842;2023-03-01T04:53:31;5.80;99.90
23291;DHT22;11814;44.686;10.842;2023-03-01T04:55:58;5.80;99.90
23291;DHT22;11814;44.686;10.842;2023-03-01T04:58:26;5.70;99.90
23291;DHT22;11814;44.686;10.842;2023-03-01T05:00:52;5.70;99.90
23291;DHT22;11814;44.686;10.842;2023-03-01T05:03:19;5.70;99.90
23291;DHT22;11814;44.686;10.842;2023-03-01T05:05:47;5.70;99.90
23291;DHT22;11814;44.686;10.842;2023-03-01T05:08:13;5.70;99.90
23291;DHT22;11814;44.686;10.842;2023-03-01T05:10:48;5.70;99.90
23291;DHT22;11814;44.686;10.842;2023-03-01T05:13:14;5.70;99.90
23291;DHT22;11814;44.686;10.842;2023-03-01T05:15:57;5.80;99.90
23291;DHT22;11814;44.686;10.842;2023-03-01T05:18:25;5.70;99.90
23291;DHT22;11814;44.686;10.842;2023-03-01T05:20:55;5.80;99.90
23291;DHT22;11814;44.686;10.842;2023-03-01T05:23:22;5.80;99.90
23291;DHT22;11814;44.686;10.842;2023-03-01T05:25:48;5.70;99.90
23291;DHT22;11814;44.686;10.842;2023-03-01T05:28:14;5.80;99.90
23291;DHT22;11814;44.686;10.842;2023-03-01T05:30:41;5.70;99.90
23291;DHT22;11814;44.686;10.842;2023-03-01T05:33:08;5.80;99.90
23291;DHT22;11814;44.686;10.842;2023-03-01T05:35:42;5.80;99.90
23291;DHT22;11814;44.686;10.842;2023-03-01T05:38:10;5.70;99.90
23291;DHT22;11814;44.686;10.842;2023-03-01T05:40:40;5.70;99.90
23291;DHT22;11814;44.686;10.842;2023-03-01T05:43:06;5.70;99.90
23291;DHT22;11814;44.686;10.842;2023-03-01T05:45:32;5.70;99.90
23291;DHT22;11814;44.686;10.842;2023-03-01T05:47:58;5.70;99.90
23291;DHT22;11814;44.686;10.842;2023-03-01T05:50:26;5.70;99.90
23291;DHT22;11814;44.686;10.842;2023-03-01T05:53:00;5.80;99.90
23291;DHT22;11814;44.686;10.842;2023-03-01T05:55:29;5.80;99.90
23291;DHT22;11814;44.686;10.842;2023-03-01T05:57:54;5.80;99.90
23291;DHT22;11814;44.686;10.842;2023-03-01T06:00:21;5.80;99.90
23291;DHT22;11814;44.686;10.842;2023-03-01T06:02:50;5.70;99.90
23291;DHT22;11814;44.686;10.842;2023-03-01T06:05:17;5.70;99.90
23291;DHT22;11814;44.686;10.842;2023-03-01T06:07:43;5.70;99.90
23291;DHT22;11814;44.686;10.842;2023-03-01T06:10:10;5.70;99.90
23291;DHT22;11814;44.686;10.842;2023-03-01T06:12:38;5.70;99.90
23291;DHT22;11814;44.686;10.842;2023-03-01T06:15:05;5.80;99.90
23291;DHT22;11814;44.686;10.842;2023-03-01T06:17:34;5.60;99.90
23291;DHT22;11814;44.686;10.842;2023-03-01T06:20:09;5.80;99.90
23291;DHT22;11814;44.686;10.842;2023-03-01T06:22:36;5.80;99.90
23291;DHT22;11814;44.686;10.842;2023-03-01T06:25:02;5.80;99.90
23291;DHT22;11814;44.686;10.842;2023-03-01T06:27:28;5.70;99.90
23291;DHT22;11814;44.686;10.842;2023-03-01T06:29:54;5.80;99.90
23291;DHT22;11814;44.686;10.842;2023-03-01T06:32:20;5.80;99.90
23291;DHT22;11814;44.686;10.842;2023-03-01T06:34:45;5.80;99.90
23291;DHT22;11814;44.686;10.842;2023-03-01T06:37:11;5.80;99.90
23291;DHT22;11814;44.686;10.842;2023-03-01T06:39:37;5.80;99.90
23291;DHT22;11814;44.686;10.842;2023-03-01T06:42:03;5.90;99.90
23291;DHT22;11814;44.686;10.842;2023-03-01T06:44:29;5.90;99.90
23291;DHT22;11814;44.686;10.842;2023-03-01T06:46:54;5.90;99.90
23291;DHT22;11814;44.686;10.842;2023-03-01T06:49:20;5.90;99.90
23291;DHT22;11814;44.686;10.842;2023-03-01T06:51:47;5.90;99.90
23291;DHT22;11814;44.686;10.842;2023-03-01T06:54:12;5.90;99.90
23291;DHT22;11814;44.686;10.842;2023-03-01T06:56:38;5.90;99.90
23291;DHT22;11814;44.686;10.842;2023-03-01T06:59:04;5.90;99.90
23291;DHT22;11814;44.686;10.842;2023-03-01T07:01:30;5.90;99.90
23291;DHT22;11814;44.686;10.842;2023-03-01T07:03:56;5.80;99.90
23291;DHT22;11814;44.686;10.842;2023-03-01T07:06:23;5.90;99.90
23291;DHT22;11814;44.686;10.842;2023-03-01T07:08:49;5.90;99.90
23291;DHT22;11814;44.686;10.842;2023-03-01T07:11:15;5.90;99.90
23291;DHT22;11814;44.686;10.842;2023-03-01T07:13:41;5.90;99.90
23291;DHT22;11814;44.686;10.842;2023-03-01T07:16:07;5.90;99.90
23291;DHT22;11814;44.686;10.842;2023-03-01T07:18:33;5.90;99.90
23291;DHT22;11814;44.686;10.842;2023-03-01T07:21:04;5.80;99.90
23291;DHT22;11814;44.686;10.842;2023-03-01T07:23:31;5.90;99.90
23291;DHT22;11814;44.686;10.842;2023-03-01T07:25:56;5.80;99.90
23291;DHT22;11814;44.686;10.842;2023-03-01T07:28:23;5.90;99.90
23291;DHT22;11814;44.686;10.842;2023-03-01T07:30:49;5.90;99.90
23291;DHT22;11814;44.686;10.842;2023-03-01T07:33:15;5.90;99.90
23291;DHT22;11814;44.686;10.842;2023-03-01T07:35:40;5.90;99.90
23291;DHT22;11814;44.686;10.842;2023-03-01T07:38:06;5.80;99.90
23291;DHT22;11814;44.686;10.842;2023-03-01T07:40:32;5.80;99.90
23291;DHT22;11814;44.686;10.842;2023-03-01T07:42:58;5.80;99.90
23291;DHT22;11814;44.686;10.842;2023-03-01T07:45:25;5.80;99.90
23291;DHT22;11814;44.686;10.842;2023-03-01T07:47:52;5.80;99.90
23291;DHT22;11814;44.686;10.842;2023-03-01T07:50:20;5.80;99.90
23291;DHT22;11814;44.686;10.842;2023-03-01T07:52:46;5.70;99.90
23291;DHT22;11814;44.686;10.842;2023-03-01T07:55:12;5.70;99.90
23291;DHT22;11814;44.686;10.842;2023-03-01T07:57:38;5.70;99.90
23291;DHT22;11814;44.686;10.842;2023-03-01T08:00:05;5.80;99.90
23291;DHT22;11814;44.686;10.842;2023-03-01T08:02:32;5.70;99.90
23291;DHT22;11814;44.686;10.842;2023-03-01T08:04:57;5.70;99.90
23291;DHT22;11814;44.686;10.842;2023-03-01T08:07:23;5.60;99.90
23291;DHT22;11814;44.686;10.842;2023-03-01T08:09:49;5.60;99.90
23291;DHT22;11814;44.686;10.842;2023-03-01T08:12:15;5.50;99.90
23291;DHT22;11814;44.686;10.842;2023-03-01T08:14:42;5.50;99.90
23291;DHT22;11814;44.686;10.842;2023-03-01T08:17:08;5.40;99.90
23291;DHT22;11814;44.686;10.842;2023-03-01T08:19:34;5.30;99.90
23291;DHT22;11814;44.686;10.842;2023-03-01T08:22:01;5.30;99.90
23291;DHT22;11814;44.686;10.842;2023-03-01T08:24:28;5.20;99.90
23291;DHT22;11814;44.686;10.842;2023-03-01T08:26:54;5.20;99.90
23291;DHT22;11814;44.686;10.842;2023-03-01T08:29:20;5.20;99.90
23291;DHT22;11814;44.686;10.842;2023-03-01T08:31:46;5.10;99.90
23291;DHT22;11814;44.686;10.842;2023-03-01T08:34:15;5.10;99.90
23291;DHT22;11814;44.686;10.842;2023-03-01T08:36:43;5.10;99.90
23291;DHT22;11814;44.686;10.842;2023-03-01T08:39:14;5.20;99.90
23291;DHT22;11814;44.686;10.842;2023-03-01T08:41:41;5.20;99.90
23291;DHT22;11814;44.686;10.842;2023-03-01T08:44:08;5.30;99.90
23291;DHT22;11814;44.686;10.842;2023-03-01T08:46:40;5.30;99.90
23291;DHT22;11814;44.686;10.842;2023-03-01T08:49:12;5.40;99.90
23291;DHT22;11814;44.686;10.842;2023-03-01T08:51:39;5.30;99.90
23291;DHT22;11814;44.686;10.842;2023-03-01T08:54:06;5.40;99.90
23291;DHT22;11814;44.686;10.842;2023-03-01T08:56:33;5.40;99.90
23291;DHT22;11814;44.686;10.842;2023-03-01T08:58:59;5.40;99.90
23291;DHT22;11814;44.686;10.842;2023-03-01T09:01:25;5.40;99.90
23291;DHT22;11814;44.686;10.842;2023-03-01T09:03:51;5.30;99.90
23291;DHT22;11814;44.686;10.842;2023-03-01T09:06:17;5.30;99.90
23291;DHT22;11814;44.686;10.842;2023-03-01T09:08:45;5.30;99.90
23291;DHT22;11814;44.686;10.842;2023-03-01T09:11:13;5.30;99.90
23291;DHT22;11814;44.686;10.842;2023-03-01T09:13:41;5.40;99.90
23291;DHT22;11814;44.686;10.842;2023-03-01T09:16:07;5.30;99.90
23291;DHT22;11814;44.686;10.842;2023-03-01T09:18:34;5.40;99.90
23291;DHT22;11814;44.686;10.842;2023-03-01T09:21:09;5.30;99.90
23291;DHT22;11814;44.686;10.842;2023-03-01T09:23:36;5.50;99.90
23291;DHT22;11814;44.686;10.842;2023-03-01T09:26:02;5.50;99.90
23291;DHT22;11814;44.686;10.842;2023-03-01T09:28:28;5.50;99.90
23291;DHT22;11814;44.686;10.842;2023-03-01T09:30:58;5.50;99.90
23291;DHT22;11814;44.686;10.842;2023-03-01T09:33:24;5.50;99.90
23291;DHT22;11814;44.686;10.842;2023-03-01T09:35:58;5.60;99.90
23291;DHT22;11814;44.686;10.842;2023-03-01T09:38:24;5.60;99.90
23291;DHT22;11814;44.686;10.842;2023-03-01T09:40:50;5.60;99.90
23291;DHT22;11814;44.686;10.842;2023-03-01T09:43:23;5.60;99.90
23291;DHT22;11814;44.686;10.842;2023-03-01T09:45:53;5.70;99.90
23291;DHT22;11814;44.686;10.842;2023-03-01T09:48:22;5.70;99.90
23291;DHT22;11814;44.686;10.842;2023-03-01T09:50:50;5.70;99.90
23291;DHT22;11814;44.686;10.842;2023-03-01T09:53:20;5.80;99.90
23291;DHT22;11814;44.686;10.842;2023-03-01T09:55:58;5.80;99.90
23291;DHT22;11814;44.686;10.842;2023-03-01T10:03:47;5.90;99.90
23291;DHT22;11814;44.686;10.842;2023-03-01T10:06:22;5.90;99.90
23291;DHT22;11814;44.686;10.842;2023-03-01T10:08:56;6.00;99.90
23291;DHT22;11814;44.686;10.842;2023-03-01T10:11:39;6.00;99.90
23291;DHT22;11814;44.686;10.842;2023-03-01T10:14:34;6.00;99.90
23291;DHT22;11814;44.686;10.842;2023-03-01T10:19:41;6.00;99.90
23291;DHT22;11814;44.686;10.842;2023-03-01T10:22:15;6.00;99.90
23291;DHT22;11814;44.686;10.842;2023-03-01T10:24:41;6.00;99.90
23291;DHT22;11814;44.686;10.842;2023-03-01T10:29:58;6.00;99.90
23291;DHT22;11814;44.686;10.842;2023-03-01T10:32:27;6.00;99.90
23291;DHT22;11814;44.686;10.842;2023-03-01T10:34:53;6.00;99.90
23291;DHT22;11814;44.686;10.842;2023-03-01T10:37:21;6.00;99.90
23291;DHT22;11814;44.686;10.842;2023-03-01T10:40:01;6.00;99.90
23291;DHT22;11814;44.686;10.842;2023-03-01T10:42:33;6.00;99.90
23291;DHT22;11814;44.686;10.842;2023-03-01T10:45:30;6.00;99.90
23291;DHT22;11814;44.686;10.842;2023-03-01T10:48:22;6.00;99.90
23291;DHT22;11814;44.686;10.842;2023-03-01T10:53:34;6.10;99.90
23291;DHT22;11814;44.686;10.842;2023-03-01T10:56:07;6.10;99.90
23291;DHT22;11814;44.686;10.842;2023-03-01T10:58:38;6.10;99.90
23291;DHT22;11814;44.686;10.842;2023-03-01T11:01:27;6.10;99.90
23291;DHT22;11814;44.686;10.842;2023-03-01T11:06:33;6.20;99.90
23291;DHT22;11814;44.686;10.842;2023-03-01T11:09:14;6.10;99.90
23291;DHT22;11814;44.686;10.842;2023-03-01T11:11:40;6.10;99.90
23291;DHT22;11814;44.686;10.842;2023-03-01T11:16:45;6.10;99.90
23291;DHT22;11814;44.686;10.842;2023-03-01T11:24:44;6.10;99.90
23291;DHT22;11814;44.686;10.842;2023-03-01T11:27:32;6.10;99.90
23291;DHT22;11814;44.686;10.842;2023-03-01T11:35:32;6.10;99.90
23291;DHT22;11814;44.686;10.842;2023-03-01T11:38:22;6.10;99.90
23291;DHT22;11814;44.686;10.842;2023-03-01T11:41:10;6.20;99.90
23291;DHT22;11814;44.686;10.842;2023-03-01T11:43:49;6.20;99.90
23291;DHT22;11814;44.686;10.842;2023-03-01T11:54:46;6.00;99.90
23291;DHT22;11814;44.686;10.842;2023-03-01T12:08:43;5.80;99.90
23291;DHT22;11814;44.686;10.842;2023-03-01T12:17:20;5.70;99.90
23291;DHT22;11814;44.686;10.842;2023-03-01T12:22:31;5.60;99.90
23291;DHT22;11814;44.686;10.842;2023-03-01T12:25:32;5.60;99.90
23291;DHT22;11814;44.686;10.842;2023-03-01T12:31:42;5.50;99.90
23291;DHT22;11814;44.686;10.842;2023-03-01T12:33:54;5.40;99.90
23291;DHT22;11814;44.686;10.842;2023-03-01T12:36:51;5.40;99.90
23291;DHT22;11814;44.686;10.842;2023-03-01T12:39:45;5.40;99.90
23291;DHT22;11814;44.686;10.842;2023-03-01T12:50:53;5.20;99.90
23291;DHT22;11814;44.686;10.842;2023-03-01T12:53:26;5.20;99.90
23291;DHT22;11814;44.686;10.842;2023-03-01T12:55:56;5.20;99.90
23291;DHT22;11814;44.686;10.842;2023-03-01T13:01:36;5.10;99.90
23291;DHT22;11814;44.686;10.842;2023-03-01T13:04:28;5.10;99.90
23291;DHT22;11814;44.686;10.842;2023-03-01T13:15:36;5.10;99.90
23291;DHT22;11814;44.686;10.842;2023-03-01T13:28:50;5.00;99.90
23291;DHT22;11814;44.686;10.842;2023-03-01T13:33:48;4.80;99.90
23291;DHT22;11814;44.686;10.842;2023-03-01T13:41:53;4.60;99.90
23291;DHT22;11814;44.686;10.842;2023-03-01T13:44:35;4.60;99.90
23291;DHT22;11814;44.686;10.842;2023-03-01T13:49:55;4.60;99.90
23291;DHT22;11814;44.686;10.842;2023-03-01T13:52:39;4.60;99.90
23291;DHT22;11814;44.686;10.842;2023-03-01T13:55:19;4.50;99.90
23291;DHT22;11814;44.686;10.842;2023-03-01T13:57:49;4.50;99.90
23291;DHT22;11814;44.686;10.842;2023-03-01T14:00:36;4.50;99.90
23291;DHT22;11814;44.686;10.842;2023-03-01T14:05:35;4.50;99.90
23291;DHT22;11814;44.686;10.842;2023-03-01T14:08:14;4.50;99.90
23291;DHT22;11814;44.686;10.842;2023-03-01T14:11:03;4.50;99.90
23291;DHT22;11814;44.686;10.842;2023-03-01T14:19:28;4.50;99.90
23291;DHT22;11814;44.686;10.842;2023-03-01T14:24:50;4.60;99.90
23291;DHT22;11814;44.686;10.842;2023-03-01T14:27:17;4.60;99.90
23291;DHT22;11814;44.686;10.842;2023-03-01T14:29:45;4.60;99.90
23291;DHT22;11814;44.686;10.842;2023-03-01T14:32:22;4.60;99.90
23291;DHT22;11814;44.686;10.842;2023-03-01T14:34:50;4.60;99.90
23291;DHT22;11814;44.686;10.842;2023-03-01T14:37:24;4.60;99.90
23291;DHT22;11814;44.686;10.842;2023-03-01T14:39:51;4.60;99.90
23291;DHT22;11814;44.686;10.842;2023-03-01T14:42:18;4.60;99.90
23291;DHT22;11814;44.686;10.842;2023-03-01T14:44:49;4.60;99.90
23291;DHT22;11814;44.686;10.842;2023-03-01T14:47:30;4.60;99.90
23291;DHT22;11814;44.686;10.842;2023-03-01T14:50:01;4.60;99.90
23291;DHT22;11814;44.686;10.842;2023-03-01T14:52:39;4.50;99.90
23291;DHT22;11814;44.686;10.842;2023-03-01T14:55:12;4.40;99.90
23291;DHT22;11814;44.686;10.842;2023-03-01T14:57:44;4.40;99.90
23291;DHT22;11814;44.686;10.842;2023-03-01T15:00:20;4.40;99.90
23291;DHT22;11814;44.686;10.842;2023-03-01T15:02:48;4.50;99.90
23291;DHT22;11814;44.686;10.842;2023-03-01T15:05:18;4.50;99.90
23291;DHT22;11814;44.686;10.842;2023-03-01T15:07:45;4.50;99.90
23291;DHT22;11814;44.686;10.842;2023-03-01T15:10:28;4.40;99.90
23291;DHT22;11814;44.686;10.842;2023-03-01T15:12:55;4.40;99.90
23291;DHT22;11814;44.686;10.842;2023-03-01T15:15:35;4.40;99.90
23291;DHT22;11814;44.686;10.842;2023-03-01T15:18:13;4.50;99.90
23291;DHT22;11814;44.686;10.842;2023-03-01T15:20:40;4.50;99.90
23291;DHT22;11814;44.686;10.842;2023-03-01T15:23:05;4.50;99.90
23291;DHT22;11814;44.686;10.842;2023-03-01T15:25:44;4.50;99.90
23291;DHT22;11814;44.686;10.842;2023-03-01T15:28:18;4.40;99.90
23291;DHT22;11814;44.686;10.842;2023-03-01T15:30:46;4.40;99.90
23291;DHT22;11814;44.686;10.842;2023-03-01T15:33:30;4.50;99.90
23291;DHT22;11814;44.686;10.842;2023-03-01T15:35:58;4.50;99.90
23291;DHT22;11814;44.686;10.842;2023-03-01T15:38:36;4.40;99.90
23291;DHT22;11814;44.686;10.842;2023-03-01T15:41:26;4.50;99.90
23291;DHT22;11814;44.686;10.842;2023-03-01T15:43:52;4.40;99.90
23291;DHT22;11814;44.686;10.842;2023-03-01T15:49:04;4.40;99.90
23291;DHT22;11814;44.686;10.842;2023-03-01T15:51:35;4.40;99.90
23291;DHT22;11814;44.686;10.842;2023-03-01T15:54:06;4.40;99.90
23291;DHT22;11814;44.686;10.842;2023-03-01T15:56:35;4.40;99.90
23291;DHT22;11814;44.686;10.842;2023-03-01T15:59:02;4.40;99.90
23291;DHT22;11814;44.686;10.842;2023-03-01T16:01:28;4.40;99.90
23291;DHT22;11814;44.686;10.842;2023-03-01T16:03:54;4.50;99.90
23291;DHT22;11814;44.686;10.842;2023-03-01T16:06:20;4.40;99.90
23291;DHT22;11814;44.686;10.842;2023-03-01T16:08:46;4.40;99.90
23291;DHT22;11814;44.686;10.842;2023-03-01T16:11:17;4.40;99.90
23291;DHT22;11814;44.686;10.842;2023-03-01T16:13:43;4.40;99.90
23291;DHT22;11814;44.686;10.842;2023-03-01T16:16:13;4.40;99.90
23291;DHT22;11814;44.686;10.842;2023-03-01T16:18:46;4.40;99.90
23291;DHT22;11814;44.686;10.842;2023-03-01T16:21:20;4.40;99.90
23291;DHT22;11814;44.686;10.842;2023-03-01T16:23:46;4.40;99.90
23291;DHT22;11814;44.686;10.842;2023-03-01T16:26:12;4.30;99.90
23291;DHT22;11814;44.686;10.842;2023-03-01T16:28:39;4.30;99.90
23291;DHT22;11814;44.686;10.842;2023-03-01T16:31:05;4.30;99.90
23291;DHT22;11814;44.686;10.842;2023-03-01T16:33:31;4.30;99.90
23291;DHT22;11814;44.686;10.842;2023-03-01T16:35:58;4.30;99.90
23291;DHT22;11814;44.686;10.842;2023-03-01T16:38:25;4.30;99.90
23291;DHT22;11814;44.686;10.842;2023-03-01T16:40:51;4.30;99.90
23291;DHT22;11814;44.686;10.842;2023-03-01T16:43:17;4.30;99.90
23291;DHT22;11814;44.686;10.842;2023-03-01T16:45:43;4.30;99.90
23291;DHT22;11814;44.686;10.842;2023-03-01T16:48:10;4.30;99.90
23291;DHT22;11814;44.686;10.842;2023-03-01T16:50:36;4.30;99.90
23291;DHT22;11814;44.686;10.842;2023-03-01T16:53:02;4.30;99.90
23291;DHT22;11814;44.686;10.842;2023-03-01T16:55:28;4.30;99.90
23291;DHT22;11814;44.686;10.842;2023-03-01T16:57:54;4.30;99.90
23291;DHT22;11814;44.686;10.842;2023-03-01T17:00:20;4.40;99.90
23291;DHT22;11814;44.686;10.842;2023-03-01T17:02:46;4.30;99.90
23291;DHT22;11814;44.686;10.842;2023-03-01T17:05:12;4.40;99.90
23291;DHT22;11814;44.686;10.842;2023-03-01T17:07:39;4.30;99.90
23291;DHT22;11814;44.686;10.842;2023-03-01T17:10:08;4.40;99.90
23291;DHT22;11814;44.686;10.842;2023-03-01T17:12:34;4.40;99.90
23291;DHT22;11814;44.686;10.842;2023-03-01T17:15:00;4.40;99.90
23291;DHT22;11814;44.686;10.842;2023-03-01T17:17:26;4.40;99.90
23291;DHT22;11814;44.686;10.842;2023-03-01T17:19:52;4.50;99.90
23291;DHT22;11814;44.686;10.842;2023-03-01T17:22:18;4.40;99.90
23291;DHT22;11814;44.686;10.842;2023-03-01T17:24:44;4.40;99.90
23291;DHT22;11814;44.686;10.842;2023-03-01T17:27:11;4.50;99.90
23291;DHT22;11814;44.686;10.842;2023-03-01T17:29:38;4.50;99.90
23291;DHT22;11814;44.686;10.842;2023-03-01T17:32:04;4.50;99.90
23291;DHT22;11814;44.686;10.842;2023-03-01T17:34:32;4.50;99.90
23291;DHT22;11814;44.686;10.842;2023-03-01T17:36:58;4.50;99.90
23291;DHT22;11814;44.686;10.842;2023-03-01T17:39:24;4.50;99.90
23291;DHT22;11814;44.686;10.842;2023-03-01T17:41:53;4.60;99.90
23291;DHT22;11814;44.686;10.842;2023-03-01T17:44:19;4.60;99.90
23291;DHT22;11814;44.686;10.842;2023-03-01T17:46:45;4.60;99.90
23291;DHT22;11814;44.686;10.842;2023-03-01T17:49:11;4.60;99.90